sensor_id;sensor_type;location;lat;lon;timestamp;temperature;humidity
5796;DHT22;2924;51.458;7.046;2023-10-09T00:02:13;15.20;99.90
5796;DHT22;2924;51.458;7.046;2023-10-09T00:04:43;15.20;99.90
5796;DHT22;2924;51.458;7.046;2023-10-09T00:07:11;15.10;99.90
5796;DHT22;2924;51.458;7.046;2023-10-09T00:09:37;15.10;99.90
5796;DHT22;2924;51.458;7.046;2023-10-09T00:12:19;15.20;99.90
5796;DHT22;2924;51.458;7.046;2023-10-09T00:14:48;15.20;99.90
5796;DHT22;2924;51.458;7.046;2023-10-09T00:17:19;15.20;99.90
5796;DHT22;2924;51.458;7.046;2023-10-09T00:19:45;15.20;99.90
5796;DHT22;2924;51.458;7.046;2023-10-09T00:22:15;15.20;99.90
5796;DHT22;2924;51.458;7.046;2023-10-09T00:25:03;15.20;99.90
5796;DHT22;2924;51.458;7.046;2023-10-09T00:27:46;15.20;99.90
5796;DHT22;2924;51.458;7.046;2023-10-09T00:30:14;15.20;99.90
5796;DHT22;2924;51.458;7.046;2023-10-09T00:32:43;15.20;99.90
5796;DHT22;2924;51.458;7.046;2023-10-09T00:35:24;15.30;99.90
5796;DHT22;2924;51.458;7.046;2023-10-09T00:38:08;15.30;99.90
5796;DHT22;2924;51.458;7.046;2023-10-09T00:40:46;15.30;99.90
5796;DHT22;2924;51.458;7.046;2023-10-09T00:43:15;15.40;99.90
5796;DHT22;2924;51.458;7.046;2023-10-09T00:45:46;15.40;99.90
5796;DHT22;2924;51.458;7.046;2023-10-09T00:48:13;15.50;99.90
5796;DHT22;2924;51.458;7.046;2023-10-09T00:50:48;15.50;99.90
5796;DHT22;2924;51.458;7.046;2023-10-09T00:53:19;15.60;99.90
5796;DHT22;2924;51.458;7.046;2023-10-09T00:55:57;15.60;99.90
5796;DHT22;2924;51.458;7.046;2023-10-09T00:58:23;15.60;99.90
5796;DHT22;2924;51.458;7.046;2023-10-09T01:00:52;15.60;99.90
5796;DHT22;2924;51.458;7.046;2023-10-09T01:03:19;15.60;99.90
5796;DHT22;2924;51.458;7.046;2023-10-09T01:08:34;15.60;99.90
5796;DHT22;2924;51.458;7.046;2023-10-09T01:11:15;15.60;99.90
5796;DHT22;2924;51.458;7.046;2023-10-09T01:13:49;15.60;99.90
5796;DHT22;2924;51.458;7.046;2023-10-09T01:16:19;15.50;99.90
5796;DHT22;2924;51.458;7.046;2023-10-09T01:18:53;15.50;99.90
5796;DHT22;2924;51.458;7.046;2023-10-09T01:21:20;15.50;99.90
5796;DHT22;2924;51.458;7.046;2023-10-09T01:23:53;15.50;99.90
5796;DHT22;2924;51.458;7.046;2023-10-09T01:26:31;15.50;99.90
5796;DHT22;2924;51.458;7.046;2023-10-09T01:29:05;15.50;99.90
5796;DHT22;2924;51.458;7.046;2023-10-09T01:31:36;15.50;99.90
5796;DHT22;2924;51.458;7.046;2023-10-09T01:34:04;15.40;99.90
5796;DHT22;2924;51.458;7.046;2023-10-09T01:36:36;15.40;99.90
5796;DHT22;2924;51.458;7.046;2023-10-09T01:39:04;15.40;99.90
5796;DHT22;2924;51.458;7.046;2023-10-09T01:41:36;15.40;99.90
5796;DHT22;2924;51.458;7.046;2023-10-09T01:44:11;15.40;99.90
5796;DHT22;2924;51.458;7.046;2023-10-09T01:46:38;15.40;99.90
5796;DHT22;2924;51.458;7.046;2023-10-09T01:49:03;15.30;99.90
5796;DHT22;2924;51.458;7.046;2023-10-09T01:51:43;15.30;99.90
5796;DHT22;2924;51.458;7.046;2023-10-09T01:54:09;15.30;99.90
5796;DHT22;2924;51.458;7.046;2023-10-09T01:56:41;15.30;99.90
5796;DHT22;2924;51.458;7.046;2023-10-09T01:59:11;15.20;99.90
5796;DHT22;2924;51.458;7.046;2023-10-09T02:01:37;15.20;99.90
5796;DHT22;2924;51.458;7.046;2023-10-09T02:04:13;15.20;99.90
5796;DHT22;2924;51.458;7.046;2023-10-09T02:06:39;15.20;99.90
5796;DHT22;2924;51.458;7.046;2023-10-09T02:09:05;15.20;99.90
5796;DHT22;2924;51.458;7.046;2023-10-09T02:11:32;15.20;99.90
5796;DHT22;2924;51.458;7.046;2023-10-09T02:14:07;15.10;99.90
5796;DHT22;2924;51.458;7.046;2023-10-09T02:16:45;15.10;99.90
5796;DHT22;2924;51.458;7.046;2023-10-09T02:19:27;15.10;99.90
5796;DHT22;2924;51.458;7.046;2023-10-09T02:22:02;15.10;99.90
5796;DHT22;2924;51.458;7.046;2023-10-09T02:24:42;15.10;99.90
5796;DHT22;2924;51.458;7.046;2023-10-09T02:27:16;15.20;99.90
5796;DHT22;2924;51.458;7.046;2023-10-09T02:29:48;15.20;99.90
5796;DHT22;2924;51.458;7.046;2023-10-09T02:32:14;15.10;99.90
5796;DHT22;2924;51.458;7.046;2023-10-09T02:34:42;15.20;99.90
5796;DHT22;2924;51.458;7.046;2023-10-09T02:37:12;15.10;99.90
5796;DHT22;2924;51.458;7.046;2023-10-09T02:39:39;15.20;99.90
5796;DHT22;2924;51.458;7.046;2023-10-09T02:42:12;15.20;99.90
5796;DHT22;2924;51.458;7.046;2023-10-09T02:44:38;15.20;99.90
5796;DHT22;2924;51.458;7.046;2023-10-09T02:47:14;15.20;99.90
5796;DHT22;2924;51.458;7.046;2023-10-09T02:49:49;15.30;99.90
5796;DHT22;2924;51.458;7.046;2023-10-09T02:52:16;15.30;99.90
5796;DHT22;2924;51.458;7.046;2023-10-09T02:54:51;15.30;99.90
5796;DHT22;2924;51.458;7.046;2023-10-09T02:57:28;15.30;99.90
5796;DHT22;2924;51.458;7.046;2023-10-09T03:00:03;15.40;99.90
5796;DHT22;2924;51.458;7.046;2023-10-09T03:02:29;15.40;99.90
5796;DHT22;2924;51.458;7.046;2023-10-09T03:04:57;15.50;99.90
5796;DHT22;2924;51.458;7.046;2023-10-09T03:07:24;15.50;99.90
5796;DHT22;2924;51.458;7.046;2023-10-09T03:09:50;15.50;99.90
5796;DHT22;2924;51.458;7.046;2023-10-09T03:12:16;15.50;99.90
5796;DHT22;2924;51.458;7.046;2023-10-09T03:14:44;15.50;99.90
5796;DHT22;2924;51.458;7.046;2023-10-09T03:17:10;15.50;99.90
5796;DHT22;2924;51.458;7.046;2023-10-09T03:19:39;15.50;99.90
5796;DHT22;2924;51.458;7.046;2023-10-09T03:22:06;15.50;99.90
5796;DHT22;2924;51.458;7.046;2023-10-09T03:24:44;15.60;99.90
5796;DHT22;2924;51.458;7.046;2023-10-09T03:27:10;15.60;99.90
5796;DHT22;2924;51.458;7.046;2023-10-09T03:29:36;15.60;99.90
5796;DHT22;2924;51.458;7.046;2023-10-09T03:32:03;15.60;99.90
5796;DHT22;2924;51.458;7.046;2023-10-09T03:34:28;15.60;99.90
5796;DHT22;2924;51.458;7.046;2023-10-09T03:36:56;15.60;99.90
5796;DHT22;2924;51.458;7.046;2023-10-09T03:39:32;15.70;99.90
5796;DHT22;2924;51.458;7.046;2023-10-09T03:42:07;15.70;99.90
5796;DHT22;2924;51.458;7.046;2023-10-09T03:44:41;15.70;99.90
5796;DHT22;2924;51.458;7.046;2023-10-09T03:47:09;15.70;99.90
5796;DHT22;2924;51.458;7.046;2023-10-09T03:49:36;15.80;99.90
5796;DHT22;2924;51.458;7.046;2023-10-09T03:52:04;15.80;99.90
5796;DHT22;2924;51.458;7.046;2023-10-09T03:54:32;15.80;99.90
5796;DHT22;2924;51.458;7.046;2023-10-09T03:57:00;15.80;99.90
5796;DHT22;2924;51.458;7.046;2023-10-09T03:59:26;15.80;99.90
5796;DHT22;2924;51.458;7.046;2023-10-09T04:01:56;15.70;99.90
5796;DHT22;2924;51.458;7.046;2023-10-09T04:04:23;15.70;99.90
5796;DHT22;2924;51.458;7.046;2023-10-09T04:06:50;15.70;99.90
5796;DHT22;2924;51.458;7.046;2023-10-09T04:09:17;15.70;99.90
5796;DHT22;2924;51.458;7.046;2023-10-09T04:11:49;15.60;99.90
5796;DHT22;2924;51.458;7.046;2023-10-09T04:14:33;15.60;99.90
5796;DHT22;2924;51.458;7.046;2023-10-09T04:17:00;15.60;99.90
5796;DHT22;2924;51.458;7.046;2023-10-09T04:19:51;15.70;99.90
5796;DHT22;2924;51.458;7.046;2023-10-09T04:22:39;15.70;99.90
5796;DHT22;2924;51.458;7.046;2023-10-09T04:25:08;15.70;99.90
5796;DHT22;2924;51.458;7.046;2023-10-09T04:27:40;15.70;99.90
5796;DHT22;2924;51.458;7.046;2023-10-09T04:30:06;15.70;99.90
5796;DHT22;2924;51.458;7.046;2023-10-09T04:32:33;15.70;99.90
5796;DHT22;2924;51.458;7.046;2023-10-09T04:35:00;15.80;99.90
5796;DHT22;2924;51.458;7.046;2023-10-09T04:37:45;15.70;99.90
5796;DHT22;2924;51.458;7.046;2023-10-09T04:40:18;15.70;99.90
5796;DHT22;2924;51.458;7.046;2023-10-09T04:43:03;15.70;99.90
5796;DHT22;2924;51.458;7.046;2023-10-09T04:45:35;15.70;99.90
5796;DHT22;2924;51.458;7.046;2023-10-09T04:48:20;15.70;99.90
5796;DHT22;2924;51.458;7.046;2023-10-09T04:51:01;15.70;99.90
5796;DHT22;2924;51.458;7.046;2023-10-09T04:53:46;15.70;99.90
5796;DHT22;2924;51.458;7.046;2023-10-09T04:56:30;15.70;99.90
5796;DHT22;2924;51.458;7.046;2023-10-09T04:58:58;15.70;99.90
5796;DHT22;2924;51.458;7.046;2023-10-09T05:01:30;15.70;99.90
5796;DHT22;2924;51.458;7.046;2023-10-09T05:04:02;15.70;99.90
5796;DHT22;2924;51.458;7.046;2023-10-09T05:06:29;15.70;99.90
5796;DHT22;2924;51.458;7.046;2023-10-09T05:09:08;15.70;99.90
5796;DHT22;2924;51.458;7.046;2023-10-09T05:11:40;15.70;99.90
5796;DHT22;2924;51.458;7.046;2023-10-09T05:14:21;15.70;99.90
5796;DHT22;2924;51.458;7.046;2023-10-09T05:17:04;15.80;99.90
5796;DHT22;2924;51.458;7.046;2023-10-09T05:19:32;15.80;99.90
5796;DHT22;2924;51.458;7.046;2023-10-09T05:22:16;15.80;99.90
5796;DHT22;2924;51.458;7.046;2023-10-09T05:25:02;15.80;99.90
5796;DHT22;2924;51.458;7.046;2023-10-09T05:27:28;15.70;99.90
5796;DHT22;2924;51.458;7.046;2023-10-09T05:30:15;15.70;99.90
5796;DHT22;2924;51.458;7.046;2023-10-09T05:32:52;15.70;99.90
5796;DHT22;2924;51.458;7.046;2023-10-09T05:35:22;15.70;99.90
5796;DHT22;2924;51.458;7.046;2023-10-09T05:38:08;15.60;99.90
5796;DHT22;2924;51.458;7.046;2023-10-09T05:40:49;15.60;99.90
5796;DHT22;2924;51.458;7.046;2023-10-09T05:43:19;15.70;99.90
5796;DHT22;2924;51.458;7.046;2023-10-09T05:46:03;15.70;99.90
5796;DHT22;2924;51.458;7.046;2023-10-09T05:48:36;15.70;99.90
5796;DHT22;2924;51.458;7.046;2023-10-09T05:51:04;15.60;99.90
5796;DHT22;2924;51.458;7.046;2023-10-09T05:53:56;15.70;99.90
5796;DHT22;2924;51.458;7.046;2023-10-09T05:56:37;15.70;99.90
5796;DHT22;2924;51.458;7.046;2023-10-09T05:59:21;15.60;99.90
5796;DHT22;2924;51.458;7.046;2023-10-09T06:02:05;15.60;99.90
5796;DHT22;2924;51.458;7.046;2023-10-09T06:05:03;15.70;99.90
5796;DHT22;2924;51.458;7.046;2023-10-09T06:07:49;15.70;99.90
5796;DHT22;2924;51.458;7.046;2023-10-09T06:10:32;15.70;99.90
5796;DHT22;2924;51.458;7.046;2023-10-09T06:13:06;15.60;99.90
5796;DHT22;2924;51.458;7.046;2023-10-09T06:15:37;15.70;99.90
5796;DHT22;2924;51.458;7.046;2023-10-09T06:18:26;15.60;99.90
5796;DHT22;2924;51.458;7.046;2023-10-09T06:20:58;15.70;99.90
5796;DHT22;2924;51.458;7.046;2023-10-09T06:23:35;15.70;99.90
5796;DHT22;2924;51.458;7.046;2023-10-09T06:26:21;15.70;99.90
5796;DHT22;2924;51.458;7.046;2023-10-09T06:28:50;15.70;99.90
5796;DHT22;2924;51.458;7.046;2023-10-09T06:31:36;15.80;99.90
5796;DHT22;2924;51.458;7.046;2023-10-09T06:34:20;15.80;99.90
5796;DHT22;2924;51.458;7.046;2023-10-09T06:36:57;15.80;99.90
5796;DHT22;2924;51.458;7.046;2023-10-09T06:39:28;15.80;99.90
5796;DHT22;2924;51.458;7.046;2023-10-09T06:42:13;15.80;99.90
5796;DHT22;2924;51.458;7.046;2023-10-09T06:45:14;15.80;99.90
5796;DHT22;2924;51.458;7.046;2023-10-09T06:47:46;15.90;99.90
5796;DHT22;2924;51.458;7.046;2023-10-09T06:50:22;15.90;99.90
5796;DHT22;2924;51.458;7.046;2023-10-09T06:52:56;16.00;99.90
5796;DHT22;2924;51.458;7.046;2023-10-09T06:55:22;15.90;99.90
5796;DHT22;2924;51.458;7.046;2023-10-09T06:58:00;15.90;99.90
5796;DHT22;2924;51.458;7.046;2023-10-09T07:00:27;15.90;99.90
5796;DHT22;2924;51.458;7.046;2023-10-09T07:03:12;15.90;99.90
5796;DHT22;2924;51.458;7.046;2023-10-09T07:05:38;15.90;99.90
5796;DHT22;2924;51.458;7.046;2023-10-09T07:08:22;16.00;99.90
5796;DHT22;2924;51.458;7.046;2023-10-09T07:11:00;16.00;99.90
5796;DHT22;2924;51.458;7.046;2023-10-09T07:13:45;16.00;99.90
5796;DHT22;2924;51.458;7.046;2023-10-09T07:16:22;16.00;99.90
5796;DHT22;2924;51.458;7.046;2023-10-09T07:19:06;16.10;99.90
5796;DHT22;2924;51.458;7.046;2023-10-09T07:21:36;16.10;99.90
5796;DHT22;2924;51.458;7.046;2023-10-09T07:24:05;16.10;99.90
5796;DHT22;2924;51.458;7.046;2023-10-09T07:26:40;16.20;99.90
5796;DHT22;2924;51.458;7.046;2023-10-09T07:29:13;16.20;99.90
5796;DHT22;2924;51.458;7.046;2023-10-09T07:31:43;16.30;99.90
5796;DHT22;2924;51.458;7.046;2023-10-09T07:34:11;16.30;99.90
5796;DHT22;2924;51.458;7.046;2023-10-09T07:37:12;16.40;99.90
5796;DHT22;2924;51.458;7.046;2023-10-09T07:39:44;16.50;99.90
5796;DHT22;2924;51.458;7.046;2023-10-09T07:42:15;16.60;99.90
5796;DHT22;2924;51.458;7.046;2023-10-09T07:44:44;16.60;99.90
5796;DHT22;2924;51.458;7.046;2023-10-09T07:47:18;16.60;99.90
5796;DHT22;2924;51.458;7.046;2023-10-09T07:50:11;16.60;99.90
5796;DHT22;2924;51.458;7.046;2023-10-09T07:52:37;16.70;99.90
5796;DHT22;2924;51.458;7.046;2023-10-09T07:55:09;16.80;99.90
5796;DHT22;2924;51.458;7.046;2023-10-09T07:57:53;16.90;99.90
5796;DHT22;2924;51.458;7.046;2023-10-09T08:00:18;16.90;99.90
5796;DHT22;2924;51.458;7.046;2023-10-09T08:03:14;16.90;99.90
5796;DHT22;2924;51.458;7.046;2023-10-09T08:05:52;16.80;99.90
5796;DHT22;2924;51.458;7.046;2023-10-09T08:08:19;16.70;99.90
5796;DHT22;2924;51.458;7.046;2023-10-09T08:10:54;16.70;99.90
5796;DHT22;2924;51.458;7.046;2023-10-09T08:13:38;16.90;99.90
5796;DHT22;2924;51.458;7.046;2023-10-09T08:16:23;17.00;99.90
5796;DHT22;2924;51.458;7.046;2023-10-09T08:18:50;17.20;99.90
5796;DHT22;2924;51.458;7.046;2023-10-09T08:21:19;17.30;99.90
5796;DHT22;2924;51.458;7.046;2023-10-09T08:23:45;17.40;99.90
5796;DHT22;2924;51.458;7.046;2023-10-09T08:26:14;17.40;99.90
5796;DHT22;2924;51.458;7.046;2023-10-09T08:28:44;17.30;99.90
5796;DHT22;2924;51.458;7.046;2023-10-09T08:31:17;17.40;99.90
5796;DHT22;2924;51.458;7.046;2023-10-09T08:34:15;17.30;99.90
5796;DHT22;2924;51.458;7.046;2023-10-09T08:36:50;17.30;99.90
5796;DHT22;2924;51.458;7.046;2023-10-09T08:39:20;17.10;99.90
5796;DHT22;2924;51.458;7.046;2023-10-09T08:41:53;17.00;99.90
5796;DHT22;2924;51.458;7.046;2023-10-09T08:44:20;16.90;99.90
5796;DHT22;2924;51.458;7.046;2023-10-09T08:46:50;16.80;99.90
5796;DHT22;2924;51.458;7.046;2023-10-09T08:49:17;16.80;99.90
5796;DHT22;2924;51.458;7.046;2023-10-09T08:51:43;16.70;99.90
5796;DHT22;2924;51.458;7.046;2023-10-09T08:54:11;16.70;99.90
5796;DHT22;2924;51.458;7.046;2023-10-09T08:56:40;16.60;99.90
5796;DHT22;2924;51.458;7.046;2023-10-09T08:59:15;16.50;99.90
5796;DHT22;2924;51.458;7.046;2023-10-09T09:01:44;16.40;99.90
5796;DHT22;2924;51.458;7.046;2023-10-09T09:04:10;16.40;99.90
5796;DHT22;2924;51.458;7.046;2023-10-09T09:06:37;16.50;99.90
5796;DHT22;2924;51.458;7.046;2023-10-09T09:09:12;16.60;99.90
5796;DHT22;2924;51.458;7.046;2023-10-09T09:11:42;16.70;99.90
5796;DHT22;2924;51.458;7.046;2023-10-09T09:14:14;16.90;99.90
5796;DHT22;2924;51.458;7.046;2023-10-09T09:16:45;17.10;99.90
5796;DHT22;2924;51.458;7.046;2023-10-09T09:19:14;17.40;99.90
5796;DHT22;2924;51.458;7.046;2023-10-09T09:21:57;17.70;99.90
5796;DHT22;2924;51.458;7.046;2023-10-09T09:24:25;18.10;99.90
5796;DHT22;2924;51.458;7.046;2023-10-09T09:26:55;18.40;99.90
5796;DHT22;2924;51.458;7.046;2023-10-09T09:32:04;19.20;99.90
5796;DHT22;2924;51.458;7.046;2023-10-09T09:34:53;19.40;99.90
5796;DHT22;2924;51.458;7.046;2023-10-09T09:37:31;19.50;99.90
5796;DHT22;2924;51.458;7.046;2023-10-09T09:40:16;19.70;99.90
5796;DHT22;2924;51.458;7.046;2023-10-09T09:42:59;19.70;99.90
5796;DHT22;2924;51.458;7.046;2023-10-09T09:45:37;19.70;99.90
5796;DHT22;2924;51.458;7.046;2023-10-09T09:48:04;19.80;99.90
5796;DHT22;2924;51.458;7.046;2023-10-09T09:50:37;19.90;99.90
5796;DHT22;2924;51.458;7.046;2023-10-09T09:53:10;19.80;99.90
5796;DHT22;2924;51.458;7.046;2023-10-09T09:55:46;19.90;99.90
5796;DHT22;2924;51.458;7.046;2023-10-09T09:58:18;19.80;99.90
5796;DHT22;2924;51.458;7.046;2023-10-09T10:00:50;19.90;99.90
5796;DHT22;2924;51.458;7.046;2023-10-09T10:03:22;20.00;99.90
5796;DHT22;2924;51.458;7.046;2023-10-09T10:05:51;20.10;99.90
5796;DHT22;2924;51.458;7.046;2023-10-09T10:08:20;20.10;99.90
5796;DHT22;2924;51.458;7.046;2023-10-09T10:10:47;20.20;99.90
5796;DHT22;2924;51.458;7.046;2023-10-09T10:13:17;20.40;99.90
5796;DHT22;2924;51.458;7.046;2023-10-09T10:18:55;21.10;99.90
5796;DHT22;2924;51.458;7.046;2023-10-09T10:21:29;21.20;99.90
5796;DHT22;2924;51.458;7.046;2023-10-09T10:23:58;21.10;99.90
5796;DHT22;2924;51.458;7.046;2023-10-09T10:26:32;21.10;99.90
5796;DHT22;2924;51.458;7.046;2023-10-09T10:29:19;21.20;99.90
5796;DHT22;2924;51.458;7.046;2023-10-09T10:31:58;21.30;99.90
5796;DHT22;2924;51.458;7.046;2023-10-09T10:34:26;21.30;99.90
5796;DHT22;2924;51.458;7.046;2023-10-09T10:36:53;21.20;99.90
5796;DHT22;2924;51.458;7.046;2023-10-09T10:39:25;21.20;99.90
5796;DHT22;2924;51.458;7.046;2023-10-09T10:42:09;21.20;99.90
5796;DHT22;2924;51.458;7.046;2023-10-09T10:44:55;21.40;99.90
5796;DHT22;2924;51.458;7.046;2023-10-09T10:47:27;21.50;99.90
5796;DHT22;2924;51.458;7.046;2023-10-09T10:50:02;21.70;99.90
5796;DHT22;2924;51.458;7.046;2023-10-09T10:53:12;21.80;99.90
5796;DHT22;2924;51.458;7.046;2023-10-09T10:56:00;21.90;99.90
5796;DHT22;2924;51.458;7.046;2023-10-09T10:58:53;21.90;99.90
5796;DHT22;2924;51.458;7.046;2023-10-09T11:01:37;21.90;99.90
5796;DHT22;2924;51.458;7.046;2023-10-09T11:04:23;21.80;99.90
5796;DHT22;2924;51.458;7.046;2023-10-09T11:06:59;22.00;99.90
5796;DHT22;2924;51.458;7.046;2023-10-09T11:12:22;22.10;99.90
5796;DHT22;2924;51.458;7.046;2023-10-09T11:14:50;22.20;99.90
5796;DHT22;2924;51.458;7.046;2023-10-09T11:17:32;22.10;99.90
5796;DHT22;2924;51.458;7.046;2023-10-09T11:19:58;22.00;99.90
5796;DHT22;2924;51.458;7.046;2023-10-09T11:22:44;22.10;99.90
5796;DHT22;2924;51.458;7.046;2023-10-09T11:25:30;22.20;99.90
5796;DHT22;2924;51.458;7.046;2023-10-09T11:27:56;22.20;99.90
5796;DHT22;2924;51.458;7.046;2023-10-09T11:30:31;22.30;99.90
5796;DHT22;2924;51.458;7.046;2023-10-09T11:33:07;22.10;99.90
5796;DHT22;2924;51.458;7.046;2023-10-09T11:35:40;22.10;99.90
5796;DHT22;2924;51.458;7.046;2023-10-09T11:38:08;22.10;99.90
5796;DHT22;2924;51.458;7.046;2023-10-09T11:40:47;22.20;99.90
5796;DHT22;2924;51.458;7.046;2023-10-09T11:43:19;22.40;99.90
5796;DHT22;2924;51.458;7.046;2023-10-09T11:46:11;22.50;99.90
5796;DHT22;2924;51.458;7.046;2023-10-09T11:48:36;22.70;99.90
5796;DHT22;2924;51.458;7.046;2023-10-09T11:51:22;22.90;99.90
5796;DHT22;2924;51.458;7.046;2023-10-09T11:53:47;23.10;99.90
5796;DHT22;2924;51.458;7.046;2023-10-09T11:56:22;23.20;99.90
5796;DHT22;2924;51.458;7.046;2023-10-09T11:58:48;23.20;99.90
5796;DHT22;2924;51.458;7.046;2023-10-09T12:01:16;23.00;99.90
5796;DHT22;2924;51.458;7.046;2023-10-09T12:03:43;22.90;99.90
5796;DHT22;2924;51.458;7.046;2023-10-09T12:06:09;22.90;99.90
5796;DHT22;2924;51.458;7.046;2023-10-09T12:08:39;22.90;99.90
5796;DHT22;2924;51.458;7.046;2023-10-09T12:11:07;22.90;99.90
5796;DHT22;2924;51.458;7.046;2023-10-09T12:13:35;22.80;99.90
5796;DHT22;2924;51.458;7.046;2023-10-09T12:16:03;22.80;99.90
5796;DHT22;2924;51.458;7.046;2023-10-09T12:18:33;22.90;99.90
5796;DHT22;2924;51.458;7.046;2023-10-09T12:21:00;22.90;99.90
5796;DHT22;2924;51.458;7.046;2023-10-09T12:23:30;23.00;99.90
5796;DHT22;2924;51.458;7.046;2023-10-09T12:26:01;23.10;99.90
5796;DHT22;2924;51.458;7.046;2023-10-09T12:28:27;23.10;99.90
5796;DHT22;2924;51.458;7.046;2023-10-09T12:30:53;23.10;99.90
5796;DHT22;2924;51.458;7.046;2023-10-09T12:33:20;23.20;99.90
5796;DHT22;2924;51.458;7.046;2023-10-09T12:35:53;23.20;99.90
5796;DHT22;2924;51.458;7.046;2023-10-09T12:38:24;23.30;99.90
5796;DHT22;2924;51.458;7.046;2023-10-09T12:41:04;23.40;99.90
5796;DHT22;2924;51.458;7.046;2023-10-09T12:43:50;23.70;99.90
5796;DHT22;2924;51.458;7.046;2023-10-09T12:46:20;23.80;99.90
5796;DHT22;2924;51.458;7.046;2023-10-09T12:48:49;23.80;99.90
5796;DHT22;2924;51.458;7.046;2023-10-09T12:51:15;23.60;99.90
5796;DHT22;2924;51.458;7.046;2023-10-09T12:53:44;23.70;99.90
5796;DHT22;2924;51.458;7.046;2023-10-09T12:56:10;23.60;99.90
5796;DHT22;2924;51.458;7.046;2023-10-09T12:58:38;23.50;99.90
5796;DHT22;2924;51.458;7.046;2023-10-09T13:01:04;23.20;99.90
5796;DHT22;2924;51.458;7.046;2023-10-09T13:03:37;23.00;99.90
5796;DHT22;2924;51.458;7.046;2023-10-09T13:06:05;22.90;99.90
5796;DHT22;2924;51.458;7.046;2023-10-09T13:08:37;22.80;99.90
5796;DHT22;2924;51.458;7.046;2023-10-09T13:11:08;22.80;99.90
5796;DHT22;2924;51.458;7.046;2023-10-09T13:13:39;22.70;99.90
5796;DHT22;2924;51.458;7.046;2023-10-09T13:16:10;22.70;99.90
5796;DHT22;2924;51.458;7.046;2023-10-09T13:18:39;22.70;99.90
5796;DHT22;2924;51.458;7.046;2023-10-09T13:21:05;22.60;99.90
5796;DHT22;2924;51.458;7.046;2023-10-09T13:23:31;22.60;99.90
5796;DHT22;2924;51.458;7.046;2023-10-09T13:26:08;22.60;99.90
5796;DHT22;2924;51.458;7.046;2023-10-09T13:28:52;22.70;99.90
5796;DHT22;2924;51.458;7.046;2023-10-09T13:31:19;23.00;99.90
5796;DHT22;2924;51.458;7.046;2023-10-09T13:33:47;23.30;99.90
5796;DHT22;2924;51.458;7.046;2023-10-09T13:36:14;23.70;99.90
5796;DHT22;2924;51.458;7.046;2023-10-09T13:38:53;23.90;99.90
5796;DHT22;2924;51.458;7.046;2023-10-09T13:41:20;23.90;99.90
5796;DHT22;2924;51.458;7.046;2023-10-09T13:43:45;23.80;99.90
5796;DHT22;2924;51.458;7.046;2023-10-09T13:46:11;23.50;99.90
5796;DHT22;2924;51.458;7.046;2023-10-09T13:48:41;23.20;99.90
5796;DHT22;2924;51.458;7.046;2023-10-09T13:51:10;23.10;99.90
5796;DHT22;2924;51.458;7.046;2023-10-09T13:53:45;23.00;99.90
5796;DHT22;2924;51.458;7.046;2023-10-09T13:56:16;22.80;99.90
5796;DHT22;2924;51.458;7.046;2023-10-09T13:58:51;22.60;99.90
5796;DHT22;2924;51.458;7.046;2023-10-09T14:01:20;22.30;99.90
5796;DHT22;2924;51.458;7.046;2023-10-09T14:03:58;22.20;99.90
5796;DHT22;2924;51.458;7.046;2023-10-09T14:06:25;22.10;99.90
5796;DHT22;2924;51.458;7.046;2023-10-09T14:09:02;22.10;99.90
5796;DHT22;2924;51.458;7.046;2023-10-09T14:11:34;22.10;99.90
5796;DHT22;2924;51.458;7.046;2023-10-09T14:14:06;22.20;99.90
5796;DHT22;2924;51.458;7.046;2023-10-09T14:16:38;22.10;99.90
5796;DHT22;2924;51.458;7.046;2023-10-09T14:19:09;22.00;99.90
5796;DHT22;2924;51.458;7.046;2023-10-09T14:21:39;22.00;99.90
5796;DHT22;2924;51.458;7.046;2023-10-09T14:24:06;21.80;99.90
5796;DHT22;2924;51.458;7.046;2023-10-09T14:26:41;21.80;99.90
5796;DHT22;2924;51.458;7.046;2023-10-09T14:29:07;21.70;99.90
5796;DHT22;2924;51.458;7.046;2023-10-09T14:31:33;21.60;99.90
5796;DHT22;2924;51.458;7.046;2023-10-09T14:34:04;21.50;99.90
5796;DHT22;2924;51.458;7.046;2023-10-09T14:36:30;21.40;99.90
5796;DHT22;2924;51.458;7.046;2023-10-09T14:39:02;21.40;99.90
5796;DHT22;2924;51.458;7.046;2023-10-09T14:41:30;21.30;99.90
5796;DHT22;2924;51.458;7.046;2023-10-09T14:43:58;21.30;99.90
5796;DHT22;2924;51.458;7.046;2023-10-09T14:46:24;21.20;99.90
5796;DHT22;2924;51.458;7.046;2023-10-09T14:48:54;21.20;99.90
5796;DHT22;2924;51.458;7.046;2023-10-09T14:51:23;21.10;99.90
5796;DHT22;2924;51.458;7.046;2023-10-09T14:53:56;21.10;99.90
5796;DHT22;2924;51.458;7.046;2023-10-09T14:56:26;21.00;99.90
5796;DHT22;2924;51.458;7.046;2023-10-09T14:58:58;20.90;99.90
5796;DHT22;2924;51.458;7.046;2023-10-09T15:01:25;20.70;99.90
5796;DHT22;2924;51.458;7.046;2023-10-09T15:03:54;20.70;99.90
5796;DHT22;2924;51.458;7.046;2023-10-09T15:06:23;20.60;99.90
5796;DHT22;2924;51.458;7.046;2023-10-09T15:08:49;20.60;99.90
5796;DHT22;2924;51.458;7.046;2023-10-09T15:11:15;20.60;99.90
5796;DHT22;2924;51.458;7.046;2023-10-09T15:13:41;20.60;99.90
5796;DHT22;2924;51.458;7.046;2023-10-09T15:16:07;20.60;99.90
5796;DHT22;2924;51.458;7.046;2023-10-09T15:18:33;20.50;99.90
5796;DHT22;2924;51.458;7.046;2023-10-09T15:20:59;20.50;99.90
5796;DHT22;2924;51.458;7.046;2023-10-09T15:23:26;20.40;99.90
5796;DHT22;2924;51.458;7.046;2023-10-09T15:25:52;20.40;99.90
5796;DHT22;2924;51.458;7.046;2023-10-09T15:28:21;20.30;99.90
5796;DHT22;2924;51.458;7.046;2023-10-09T15:30:47;20.30;99.90
5796;DHT22;2924;51.458;7.046;2023-10-09T15:33:15;20.30;99.90
5796;DHT22;2924;51.458;7.046;2023-10-09T15:35:45;20.30;99.90
5796;DHT22;2924;51.458;7.046;2023-10-09T15:38:15;20.20;99.90
5796;DHT22;2924;51.458;7.046;2023-10-09T15:40:41;20.20;99.90
5796;DHT22;2924;51.458;7.046;2023-10-09T15:43:09;20.10;99.90
5796;DHT22;2924;51.458;7.046;2023-10-09T15:45:44;20.10;99.90
5796;DHT22;2924;51.458;7.046;2023-10-09T15:48:13;20.10;99.90
5796;DHT22;2924;51.458;7.046;2023-10-09T15:50:45;20.00;99.90
5796;DHT22;2924;51.458;7.046;2023-10-09T15:53:14;20.00;99.90
5796;DHT22;2924;51.458;7.046;2023-10-09T15:55:43;19.90;99.90
5796;DHT22;2924;51.458;7.046;2023-10-09T15:58:09;19.80;99.90
5796;DHT22;2924;51.458;7.046;2023-10-09T16:00:35;19.70;99.90
5796;DHT22;2924;51.458;7.046;2023-10-09T16:03:00;19.70;99.90
5796;DHT22;2924;51.458;7.046;2023-10-09T16:05:26;19.80;99.90
5796;DHT22;2924;51.458;7.046;2023-10-09T16:07:53;19.70;99.90
5796;DHT22;2924;51.458;7.046;2023-10-09T16:10:20;19.70;99.90
5796;DHT22;2924;51.458;7.046;2023-10-09T16:12:46;19.70;99.90
5796;DHT22;2924;51.458;7.046;2023-10-09T16:15:12;19.70;99.90
5796;DHT22;2924;51.458;7.046;2023-10-09T16:17:40;19.60;99.90
5796;DHT22;2924;51.458;7.046;2023-10-09T16:20:08;19.60;99.90
5796;DHT22;2924;51.458;7.046;2023-10-09T16:22:40;19.50;99.90
5796;DHT22;2924;51.458;7.046;2023-10-09T16:25:06;19.50;99.90
5796;DHT22;2924;51.458;7.046;2023-10-09T16:27:35;19.40;99.90
5796;DHT22;2924;51.458;7.046;2023-10-09T16:30:01;19.40;99.90
5796;DHT22;2924;51.458;7.046;2023-10-09T16:32:33;19.30;99.90
5796;DHT22;2924;51.458;7.046;2023-10-09T16:34:59;19.30;99.90
5796;DHT22;2924;51.458;7.046;2023-10-09T16:37:25;19.20;99.90
5796;DHT22;2924;51.458;7.046;2023-10-09T16:39:53;19.20;99.90
5796;DHT22;2924;51.458;7.046;2023-10-09T16:42:23;19.10;99.90
5796;DHT22;2924;51.458;7.046;2023-10-09T16:44:52;19.00;99.90
5796;DHT22;2924;51.458;7.046;2023-10-09T16:47:21;19.10;99.90
5796;DHT22;2924;51.458;7.046;2023-10-09T16:49:47;19.00;99.90